Latest Weather Observations for Mackay

IDQ60801

Issued at 1:35 pm EST Sunday 26 October 2014 (issued every 30 minutes, with the page automatically refreshed every 10 minutes)

About weather observations | Map of weather stations | Latest weather observations for QLD | Other Formats
Station Details ID: 033119 Name: MACKAY M.O Lat: -21.12 Lon: 149.22 Height: 30.26 m
Data from the previous 72 hours. | See also: Recent months at Mackay
Date/Time
EST
Temp
°C
App
Temp
°C
Dew
Point
Rel
Hum
%
Delta-T
°C
Wind Press
QNH
hPa
Press
MSL
hPa
Rain
since 9 am
mm
Dir
 
Spd
km/h
Gust
km/h
Spd
kts
Gust
kts
26/01:00pm 26.8 26.8 17.2 55 6.0 NE 13 19 7 10 1016.1 1015.9 0.0
26/12:30pm 26.2 26.1 17.0 57 5.7 E 13 20 7 11 1016.4 1016.2 0.0
26/12:00pm 25.2 24.6 16.6 59 5.3 E 15 19 8 10 1016.9 1016.7 0.0
26/11:30am 26.1 25.9 16.7 56 5.8 ENE 13 19 7 10 1017.2 1017.0 0.0
26/11:00am 25.6 25.3 16.5 57 5.6 E 13 20 7 11 1017.7 1017.5 0.0
26/10:30am 26.2 26.4 16.8 56 5.8 E 11 17 6 9 1018.1 1017.9 0.0
26/10:00am 25.7 25.8 16.4 56 5.7 E 11 15 6 8 1018.3 1018.1 0.0
26/09:30am 24.6 25.4 17.2 63 4.6 ESE 9 15 5 8 1018.6 1018.4 0.0
26/09:00am 24.1 24.8 17.0 64 4.4 E 9 13 5 7 1018.5 1018.3 0.0
26/08:30am 24.2 24.7 16.5 62 4.7 ENE 9 13 5 7 1018.6 1018.4 0.0
26/08:00am 23.6 25.0 17.3 67 3.9 SSW 6 9 3 5 1018.4 1018.2 0.0
26/07:30am 21.5 22.6 17.1 76 2.7 SW 7 9 4 5 1018.4 1018.2 0.0
26/07:00am 19.7 20.2 16.5 82 1.9 SW 9 13 5 7 1018.2 1018.0 0.0
26/06:30am 18.2 18.6 16.4 89 1.1 SW 9 13 5 7 1017.9 1017.7 0.0
26/06:00am 17.3 16.9 16.1 93 0.7 SW 13 17 7 9 1017.7 1017.5 0.0
26/05:30am 16.9 16.8 15.9 94 0.6 SW 11 13 6 7 1017.4 1017.2 0.0
26/05:00am 17.1 17.0 16.1 94 0.6 SW 11 15 6 8 1017.3 1017.1 0.0
26/04:30am 17.5 17.5 16.3 93 0.7 SW 11 13 6 7 1017.0 1016.8 0.0
26/04:00am 17.8 17.9 16.5 92 0.8 WSW 11 13 6 7 1017.0 1016.8 0.0
26/03:30am 18.1 18.2 16.6 91 0.9 WSW 11 11 6 6 1016.9 1016.7 0.0
26/03:00am 18.3 18.4 16.6 90 1.0 WSW 11 13 6 7 1017.0 1016.8 0.0
26/02:30am 18.4 18.5 16.6 89 1.1 WSW 11 13 6 7 1017.0 1016.8 0.0
26/02:00am 18.5 19.1 16.7 89 1.1 WSW 9 11 5 6 1017.2 1017.0 0.0
26/01:30am 18.5 18.7 16.8 90 1.0 WSW 11 15 6 8 1017.5 1017.3 0.0
26/01:00am 18.8 19.5 17.1 90 1.0 SW 9 13 5 7 1017.8 1017.6 0.0
26/12:30am 19.2 20.0 17.2 88 1.2 WSW 9 11 5 6 1018.1 1017.9 0.0
26/12:00am 19.5 20.3 17.2 86 1.4 WSW 9 9 5 5 1018.4 1018.2 0.0
 
Date/Time
EST
Temp
°C
App
Temp
°C
Dew
Point
Rel
Hum
%
Delta-T
°C
Wind Press
QNH
hPa
Press
MSL
hPa
Rain
since 9 am
mm
Dir
 
Spd
km/h
Gust
km/h
Spd
kts
Gust
kts
25/11:30pm 19.5 20.3 17.2 86 1.4 WSW 9 11 5 6 1018.7 1018.5 0.0
25/11:00pm 20.9 22.6 17.1 79 2.3 ENE 4 9 2 5 1019.1 1018.9 0.0
25/10:30pm 21.7 22.5 17.3 76 2.7 ENE 9 13 5 7 1019.2 1019.0 0.0
25/10:00pm 21.7 23.0 17.5 77 2.6 NE 7 11 4 6 1019.4 1019.2 0.0
25/09:30pm 21.9 22.8 17.5 76 2.7 ENE 9 15 5 8 1019.4 1019.2 0.0
25/09:00pm 21.9 22.9 17.7 77 2.6 ENE 9 13 5 7 1019.3 1019.1 0.0
25/08:30pm 21.8 22.7 17.6 77 2.6 ENE 9 11 5 6 1019.0 1018.8 0.0
25/08:00pm 21.5 22.7 17.3 77 2.6 NE 7 13 4 7 1018.7 1018.5 0.0
25/07:30pm 21.7 22.8 17.1 75 2.8 NE 7 11 4 6 1018.6 1018.4 0.0
25/07:00pm 22.3 22.7 17.3 73 3.1 ENE 11 17 6 9 1018.4 1018.2 0.0
25/06:30pm 22.4 23.2 17.2 72 3.2 ENE 9 17 5 9 1018.1 1017.9 0.0
25/06:00pm 22.8 23.1 16.9 69 3.6 ENE 11 17 6 9 1017.8 1017.6 0.0
25/05:30pm 23.6 23.2 16.2 63 4.5 ENE 13 20 7 11 1017.6 1017.4 0.0
25/05:00pm 24.1 22.9 16.2 61 4.8 ENE 17 20 9 11 1017.2 1017.0 0.0
25/04:30pm 24.5 23.6 16.9 62 4.7 E 17 24 9 13 1017.0 1016.8 0.0
25/04:00pm 25.1 24.6 16.8 60 5.1 E 15 24 8 13 1017.1 1016.9 0.0
25/03:30pm 25.0 24.4 16.7 60 5.1 E 15 20 8 11 1017.1 1016.9 0.0
25/03:00pm 24.7 23.9 16.0 58 5.3 E 15 22 8 12 1017.1 1016.9 0.0
25/02:30pm 25.1 24.9 16.7 59 5.2 E 13 24 7 13 1017.4 1017.2 0.0
25/02:00pm 25.5 25.4 16.9 59 5.3 ESE 13 22 7 12 1017.7 1017.5 0.0
25/01:30pm 25.7 25.1 16.6 57 5.6 ESE 15 22 8 12 1017.9 1017.7 0.0
25/01:00pm 25.6 26.0 17.2 59 5.2 ESE 11 19 6 10 1018.4 1018.2 0.0
25/12:30pm 25.9 26.0 17.4 59 5.3 SE 13 19 7 10 1018.9 1018.7 0.0
25/12:00pm 25.6 25.7 17.4 60 5.1 ESE 13 19 7 10 1019.1 1018.9 0.0
25/11:30am 25.8 25.8 17.1 58 5.4 SE 13 19 7 10 1019.4 1019.2 0.0
25/11:00am 25.1 25.7 17.6 63 4.7 SE 11 19 6 10 1019.9 1019.7 0.0
25/10:30am 25.5 26.1 17.7 62 4.9 SE 11 17 6 9 1020.3 1020.1 0.0
25/10:00am 25.4 26.2 17.2 60 5.1 SE 9 17 5 9 1020.4 1020.2 0.0
25/09:30am 25.0 26.1 17.1 61 4.9 SE 7 11 4 6 1020.6 1020.4 0.0
25/09:00am 24.6 25.3 17.0 62 4.7 E 9 13 5 7 1020.7 1020.5 0.0
25/08:30am 24.5 25.3 17.2 63 4.5 SE 9 13 5 7 1020.9 1020.7 0.0
25/08:00am 23.2 24.4 17.4 70 3.6 S 7 11 4 6 1020.6 1020.4 0.0
25/07:30am 22.0 22.7 17.1 74 3.0 SSW 9 11 5 6 1020.5 1020.3 0.0
25/07:00am 19.5 19.1 16.3 82 1.9 SW 13 17 7 9 1020.3 1020.1 0.0
25/06:30am 17.6 17.0 15.6 88 1.2 SW 13 17 7 9 1020.1 1019.9 0.0
25/06:00am 16.8 16.0 15.2 90 0.9 WSW 13 17 7 9 1019.8 1019.6 0.0
25/05:30am 16.5 15.7 15.1 91 0.8 SW 13 17 7 9 1019.3 1019.1 0.0
25/05:00am 16.6 15.8 15.2 91 0.8 SW 13 15 7 8 1019.0 1018.8 0.0
25/04:30am 16.9 16.2 15.4 91 0.9 SW 13 15 7 8 1018.8 1018.6 0.0
25/04:00am 17.4 16.7 15.5 89 1.1 SW 13 15 7 8 1018.7 1018.5 0.0
25/03:30am 17.7 17.2 15.8 89 1.1 SW 13 17 7 9 1018.6 1018.4 0.0
25/03:00am 18.1 18.0 16.1 88 1.2 WSW 11 15 6 8 1018.7 1018.5 0.0
25/02:30am 18.4 18.4 16.2 87 1.3 SW 11 15 6 8 1018.9 1018.7 0.0
25/02:00am 18.3 18.7 16.3 88 1.2 SW 9 13 5 7 1018.9 1018.7 0.0
25/01:30am 18.6 18.9 16.1 85 1.5 SW 9 13 5 7 1019.3 1019.1 0.0
25/01:00am 19.2 20.2 16.4 84 1.7 S 6 11 3 6 1019.9 1019.7 0.0
25/12:30am 21.6 22.2 16.8 74 2.9 SE 9 17 5 9 1020.4 1020.2 0.0
25/12:00am 21.9 22.6 17.0 73 3.0 ESE 9 17 5 9 1020.6 1020.4 0.0
 
Date/Time
EST
Temp
°C
App
Temp
°C
Dew
Point
Rel
Hum
%
Delta-T
°C
Wind Press
QNH
hPa
Press
MSL
hPa
Rain
since 9 am
mm
Dir
 
Spd
km/h
Gust
km/h
Spd
kts
Gust
kts
24/11:30pm 22.2 22.9 17.1 73 3.1 ESE 9 17 5 9 1020.8 1020.6 0.0
24/11:00pm 22.2 22.7 16.6 70 3.4 ESE 9 17 5 9 1021.0 1020.8 0.0
24/10:30pm 22.1 22.5 17.2 74 3.0 ESE 11 19 6 10 1021.1 1020.9 0.0
24/10:00pm 22.2 22.5 17.0 72 3.2 ESE 11 17 6 9 1021.0 1020.8 0.0
24/09:30pm 22.3 22.9 16.9 71 3.3 ESE 9 17 5 9 1020.9 1020.7 0.0
24/09:00pm 22.2 21.9 16.4 69 3.5 ESE 13 22 7 12 1020.7 1020.5 0.0
24/08:30pm 22.2 21.8 16.1 68 3.7 ESE 13 20 7 11 1020.4 1020.2 0.0
24/08:00pm 22.3 22.2 16.0 67 3.8 E 11 17 6 9 1020.2 1020.0 0.0
24/07:30pm 22.2 21.8 16.2 69 3.6 ESE 13 17 7 9 1019.9 1019.7 0.0
24/07:00pm 22.3 22.1 15.8 66 3.9 ESE 11 17 6 9 1019.7 1019.5 0.0
24/06:30pm 22.3 21.7 14.7 62 4.5 ESE 11 19 6 10 1019.6 1019.4 0.0
24/06:00pm 22.6 22.7 15.4 64 4.3 E 9 17 5 9 1019.3 1019.1 0.0
24/05:30pm 23.0 22.7 15.5 62 4.5 E 11 15 6 8 1019.0 1018.8 0.0
24/05:00pm 23.5 22.9 14.7 57 5.2 ESE 11 19 6 10 1018.6 1018.4 0.0
24/04:30pm 24.1 23.3 15.1 57 5.4 ESE 13 19 7 10 1018.5 1018.3 0.0
24/04:00pm 24.4 23.6 15.2 56 5.5 ESE 13 19 7 10 1018.3 1018.1 0.0
24/03:30pm 25.4 24.7 15.3 53 6.1 SE 13 20 7 11 1018.5 1018.3 0.0
24/03:00pm 24.9 24.1 15.1 54 5.9 ESE 13 20 7 11 1018.6 1018.4 0.0
24/02:30pm 25.5 24.1 14.6 51 6.5 SE 15 24 8 13 1018.8 1018.6 0.0
24/02:00pm 24.8 23.3 14.3 52 6.2 ESE 15 20 8 11 1018.9 1018.7 0.0
24/01:30pm 25.9 24.8 14.3 48 6.9 ESE 13 22 7 12 1019.2 1019.0 0.0
24/01:00pm 25.5 24.0 14.2 49 6.7 ESE 15 24 8 13 1019.5 1019.3 0.0
24/12:30pm 26.1 25.6 14.8 49 6.8 SE 11 24 6 13 1019.8 1019.6 0.0
24/12:00pm 25.6 24.4 14.1 49 6.8 ESE 13 22 7 12 1019.9 1019.7 0.0
24/11:30am 25.4 23.9 14.3 50 6.6 SE 15 22 8 12 1020.1 1019.9 0.0
24/11:00am 25.7 24.6 14.2 49 6.8 SE 13 24 7 13 1020.3 1020.1 0.0
24/10:30am 25.1 23.9 14.1 50 6.5 ESE 13 20 7 11 1020.6 1020.4 0.0
24/10:00am 25.0 23.6 13.5 48 6.7 ESE 13 20 7 11 1020.9 1020.7 0.0
24/09:30am 24.2 24.0 14.8 55 5.6 SSE 9 17 5 9 1021.1 1020.9 0.0
24/09:00am 23.8 23.4 16.2 62 4.6 SSE 13 19 7 10 1021.1 1020.9 0.0
24/08:30am 23.9 23.4 16.0 61 4.8 SSE 13 20 7 11 1021.1 1020.9 0.0
24/08:00am 22.4 22.4 16.3 68 3.7 S 11 15 6 8 1020.9 1020.7 0.0
24/07:30am 20.7 21.1 16.4 76 2.6 SSW 9 15 5 8 1020.8 1020.6 0.0
24/07:00am 18.9 18.8 16.0 83 1.7 SW 11 17 6 9 1020.4 1020.2 0.0
24/06:30am 17.3 16.8 15.8 91 0.9 SW 13 15 7 8 1020.2 1020.0 0.0
24/06:00am 16.0 15.2 15.1 94 0.5 WSW 13 17 7 9 1019.8 1019.6 0.0
24/05:30am 15.7 14.8 14.8 94 0.5 WSW 13 15 7 8 1019.5 1019.3 0.0
24/05:00am 15.9 15.1 15.0 94 0.5 SW 13 17 7 9 1019.1 1018.9 0.0
24/04:30am 16.1 15.3 15.2 94 0.5 SW 13 17 7 9 1018.7 1018.5 0.0
24/04:00am 16.4 15.7 15.5 94 0.5 SW 13 17 7 9 1018.4 1018.2 0.0
24/03:30am 16.5 16.3 15.6 94 0.5 WSW 11 15 6 8 1018.5 1018.3 0.0
24/03:00am 16.6 16.0 15.7 94 0.5 SW 13 15 7 8 1018.8 1018.6 0.0
24/02:30am 17.0 16.5 15.8 93 0.7 SW 13 17 7 9 1018.8 1018.6 0.0
24/02:00am 17.3 17.2 16.1 93 0.7 SW 11 13 6 7 1019.0 1018.8 0.0
24/01:30am 17.5 17.4 16.1 91 0.8 SW 11 15 6 8 1019.3 1019.1 0.0
24/01:00am 17.7 18.1 16.2 91 0.9 SW 9 13 5 7 1019.6 1019.4 0.0
24/12:30am 17.8 17.7 16.1 90 1.0 SW 11 13 6 7 1020.0 1019.8 0.0
24/12:00am 18.0 18.3 16.1 89 1.1 WSW 9 11 5 6 1020.3 1020.1 0.0
 
Date/Time
EST
Temp
°C
App
Temp
°C
Dew
Point
Rel
Hum
%
Delta-T
°C
Wind Press
QNH
hPa
Press
MSL
hPa
Rain
since 9 am
mm
Dir
 
Spd
km/h
Gust
km/h
Spd
kts
Gust
kts
23/11:30pm 18.2 18.6 16.2 88 1.2 WSW 9 13 5 7 1020.5 1020.3 0.0
23/11:00pm 20.1 20.8 15.7 76 2.6 S 6 11 3 6 1020.8 1020.6 0.0
23/10:30pm 21.4 21.6 15.7 70 3.4 E 9 13 5 7 1020.7 1020.5 0.0
23/10:00pm 21.6 21.7 15.4 68 3.7 ESE 9 15 5 8 1020.6 1020.4 0.0
23/09:30pm 21.7 21.4 15.5 68 3.7 E 11 19 6 10 1020.3 1020.1 0.0
23/09:00pm 21.7 21.6 16.0 70 3.4 ESE 11 17 6 9 1020.2 1020.0 0.0
23/08:30pm 21.8 21.4 16.2 70 3.4 E 13 20 7 11 1019.8 1019.6 0.0
23/08:00pm 21.9 21.5 16.3 70 3.4 ESE 13 20 7 11 1019.7 1019.5 0.0
23/07:30pm 22.0 21.3 16.4 70 3.4 E 15 24 8 13 1019.4 1019.2 0.0
23/07:00pm 21.9 21.5 16.3 70 3.4 ESE 13 20 7 11 1019.2 1019.0 0.0
23/06:30pm 22.1 21.9 15.8 67 3.8 E 11 19 6 10 1018.7 1018.5 0.0
23/06:00pm 22.3 22.1 15.8 66 3.9 ESE 11 17 6 9 1018.5 1018.3 0.0
23/05:30pm 22.8 22.7 16.0 65 4.1 ESE 11 20 6 11 1018.2 1018.0 0.0
23/05:00pm 23.3 22.8 15.8 62 4.5 ESE 13 19 7 10 1017.8 1017.6 0.0
23/04:30pm 24.0 23.5 15.9 60 4.9 ESE 13 20 7 11 1017.7 1017.5 0.0
23/04:00pm 24.0 23.6 16.1 61 4.8 ESE 13 20 7 11 1017.4 1017.2 0.0
23/03:30pm 25.0 23.9 16.3 58 5.3 SE 17 24 9 13 1017.6 1017.4 0.0
23/03:00pm 25.4 24.2 16.1 56 5.7 SE 17 28 9 15 1017.7 1017.5 0.0
23/02:30pm 25.5 24.3 16.2 56 5.7 SE 17 24 9 13 1017.8 1017.6 0.0
23/02:00pm 25.4 24.1 15.7 55 5.9 SE 17 28 9 15 1018.0 1017.8 0.0

Other Formats:

Comma delimited format used in spreadsheet applications
http://www.bom.gov.au/fwo/IDQ60801/IDQ60801.94367.axf

JavaScript Object Notation format (JSON) in row-major order
http://www.bom.gov.au/fwo/IDQ60801/IDQ60801.94367.json